sensor_id;sensor_type;location;lat;lon;timestamp;P1;durP1;ratioP1;P2;durP2;ratioP2
10041;SDS011;5061;49.068;12.058;2022-09-01T00:00:27;2.37;;;1.50;;
10041;SDS011;5061;49.068;12.058;2022-09-01T00:03:49;1.90;;;1.80;;
10041;SDS011;5061;49.068;12.058;2022-09-01T00:07:13;1.70;;;1.60;;
10041;SDS011;5061;49.068;12.058;2022-09-01T00:10:34;1.60;;;1.50;;
10041;SDS011;5061;49.068;12.058;2022-09-01T00:13:55;2.07;;;1.87;;
10041;SDS011;5061;49.068;12.058;2022-09-01T00:17:16;1.90;;;1.80;;
10041;SDS011;5061;49.068;12.058;2022-09-01T00:20:37;2.67;;;2.30;;
10041;SDS011;5061;49.068;12.058;2022-09-01T00:23:58;2.30;;;2.10;;
10041;SDS011;5061;49.068;12.058;2022-09-01T00:27:20;2.70;;;2.13;;
10041;SDS011;5061;49.068;12.058;2022-09-01T00:30:40;2.17;;;1.97;;
10041;SDS011;5061;49.068;12.058;2022-09-01T00:34:01;2.10;;;1.90;;
10041;SDS011;5061;49.068;12.058;2022-09-01T00:37:22;2.20;;;2.00;;
10041;SDS011;5061;49.068;12.058;2022-09-01T00:40:43;2.73;;;2.53;;
10041;SDS011;5061;49.068;12.058;2022-09-01T00:44:05;2.20;;;2.00;;
10041;SDS011;5061;49.068;12.058;2022-09-01T00:47:28;2.80;;;2.50;;
10041;SDS011;5061;49.068;12.058;2022-09-01T00:50:48;3.07;;;2.77;;
10041;SDS011;5061;49.068;12.058;2022-09-01T00:54:10;1.90;;;1.80;;
10041;SDS011;5061;49.068;12.058;2022-09-01T00:57:34;2.67;;;2.47;;
10041;SDS011;5061;49.068;12.058;2022-09-01T01:00:55;2.47;;;2.27;;
10041;SDS011;5061;49.068;12.058;2022-09-01T01:04:15;2.30;;;2.10;;
10041;SDS011;5061;49.068;12.058;2022-09-01T01:07:36;2.67;;;2.47;;
10041;SDS011;5061;49.068;12.058;2022-09-01T01:11:08;2.50;;;2.30;;
10041;SDS011;5061;49.068;12.058;2022-09-01T01:14:36;2.17;;;1.97;;
10041;SDS011;5061;49.068;12.058;2022-09-01T01:17:58;2.37;;;2.17;;
10041;SDS011;5061;49.068;12.058;2022-09-01T01:21:21;2.57;;;2.30;;
10041;SDS011;5061;49.068;12.058;2022-09-01T01:25:04;4.23;;;2.13;;
10041;SDS011;5061;49.068;12.058;2022-09-01T01:28:29;2.67;;;2.47;;
10041;SDS011;5061;49.068;12.058;2022-09-01T01:31:52;2.33;;;2.13;;
10041;SDS011;5061;49.068;12.058;2022-09-01T01:35:13;2.43;;;2.23;;
10041;SDS011;5061;49.068;12.058;2022-09-01T01:38:40;2.50;;;2.30;;
10041;SDS011;5061;49.068;12.058;2022-09-01T01:42:02;2.27;;;2.07;;
10041;SDS011;5061;49.068;12.058;2022-09-01T01:45:26;2.57;;;2.37;;
10041;SDS011;5061;49.068;12.058;2022-09-01T01:48:48;2.20;;;2.00;;
10041;SDS011;5061;49.068;12.058;2022-09-01T01:52:11;1.60;;;1.50;;
10041;SDS011;5061;49.068;12.058;2022-09-01T01:55:35;1.93;;;1.83;;
10041;SDS011;5061;49.068;12.058;2022-09-01T01:58:55;1.83;;;1.73;;
10041;SDS011;5061;49.068;12.058;2022-09-01T02:02:16;2.43;;;2.23;;
10041;SDS011;5061;49.068;12.058;2022-09-01T02:05:38;3.70;;;1.80;;
10041;SDS011;5061;49.068;12.058;2022-09-01T02:08:58;2.50;;;2.30;;
10041;SDS011;5061;49.068;12.058;2022-09-01T02:12:22;2.27;;;2.07;;
10041;SDS011;5061;49.068;12.058;2022-09-01T02:15:45;2.60;;;2.40;;
10041;SDS011;5061;49.068;12.058;2022-09-01T02:19:07;2.30;;;2.10;;
10041;SDS011;5061;49.068;12.058;2022-09-01T02:22:31;2.07;;;1.87;;
10041;SDS011;5061;49.068;12.058;2022-09-01T02:25:53;2.60;;;2.40;;
10041;SDS011;5061;49.068;12.058;2022-09-01T02:29:20;2.90;;;2.43;;
10041;SDS011;5061;49.068;12.058;2022-09-01T02:32:42;2.60;;;2.40;;
10041;SDS011;5061;49.068;12.058;2022-09-01T02:36:05;3.00;;;2.80;;
10041;SDS011;5061;49.068;12.058;2022-09-01T02:39:29;2.87;;;2.50;;
10041;SDS011;5061;49.068;12.058;2022-09-01T02:42:52;3.10;;;2.80;;
10041;SDS011;5061;49.068;12.058;2022-09-01T02:46:13;3.07;;;2.77;;
10041;SDS011;5061;49.068;12.058;2022-09-01T02:49:34;3.03;;;2.73;;
10041;SDS011;5061;49.068;12.058;2022-09-01T02:52:55;2.90;;;2.70;;
10041;SDS011;5061;49.068;12.058;2022-09-01T02:56:16;3.17;;;2.87;;
10041;SDS011;5061;49.068;12.058;2022-09-01T02:59:39;2.73;;;2.53;;
10041;SDS011;5061;49.068;12.058;2022-09-01T03:03:01;3.47;;;3.00;;
10041;SDS011;5061;49.068;12.058;2022-09-01T03:06:22;3.50;;;3.13;;
10041;SDS011;5061;49.068;12.058;2022-09-01T03:09:43;3.50;;;3.20;;
10041;SDS011;5061;49.068;12.058;2022-09-01T03:13:26;3.07;;;2.77;;
10041;SDS011;5061;49.068;12.058;2022-09-01T03:16:48;2.70;;;2.50;;
10041;SDS011;5061;49.068;12.058;2022-09-01T03:20:08;2.80;;;2.60;;
10041;SDS011;5061;49.068;12.058;2022-09-01T03:23:31;2.37;;;2.17;;
10041;SDS011;5061;49.068;12.058;2022-09-01T03:26:52;2.43;;;2.23;;
10041;SDS011;5061;49.068;12.058;2022-09-01T03:30:14;1.80;;;1.70;;
10041;SDS011;5061;49.068;12.058;2022-09-01T03:33:35;2.57;;;2.37;;
10041;SDS011;5061;49.068;12.058;2022-09-01T03:36:56;2.60;;;2.40;;
10041;SDS011;5061;49.068;12.058;2022-09-01T03:40:17;2.47;;;2.27;;
10041;SDS011;5061;49.068;12.058;2022-09-01T03:43:38;2.20;;;2.00;;
10041;SDS011;5061;49.068;12.058;2022-09-01T03:46:59;2.50;;;2.30;;
10041;SDS011;5061;49.068;12.058;2022-09-01T03:50:21;2.60;;;2.30;;
10041;SDS011;5061;49.068;12.058;2022-09-01T03:53:43;2.37;;;2.17;;
10041;SDS011;5061;49.068;12.058;2022-09-01T03:57:05;1.97;;;1.87;;
10041;SDS011;5061;49.068;12.058;2022-09-01T04:00:29;2.37;;;2.17;;
10041;SDS011;5061;49.068;12.058;2022-09-01T04:03:51;2.30;;;2.10;;
10041;SDS011;5061;49.068;12.058;2022-09-01T04:07:12;1.67;;;1.57;;
10041;SDS011;5061;49.068;12.058;2022-09-01T04:10:33;1.90;;;1.77;;
10041;SDS011;5061;49.068;12.058;2022-09-01T04:13:57;1.90;;;1.77;;
10041;SDS011;5061;49.068;12.058;2022-09-01T04:17:18;2.43;;;2.03;;
10041;SDS011;5061;49.068;12.058;2022-09-01T04:20:58;1.50;;;1.40;;
10041;SDS011;5061;49.068;12.058;2022-09-01T04:24:19;1.87;;;1.67;;
10041;SDS011;5061;49.068;12.058;2022-09-01T04:27:42;2.10;;;1.90;;
10041;SDS011;5061;49.068;12.058;2022-09-01T04:31:08;2.60;;;2.40;;
10041;SDS011;5061;49.068;12.058;2022-09-01T04:34:37;2.40;;;2.20;;
10041;SDS011;5061;49.068;12.058;2022-09-01T04:37:59;2.70;;;2.40;;
10041;SDS011;5061;49.068;12.058;2022-09-01T04:41:21;3.07;;;2.77;;
10041;SDS011;5061;49.068;12.058;2022-09-01T04:44:47;3.10;;;2.80;;
10041;SDS011;5061;49.068;12.058;2022-09-01T04:48:08;1.83;;;1.73;;
10041;SDS011;5061;49.068;12.058;2022-09-01T04:51:29;1.97;;;1.77;;
10041;SDS011;5061;49.068;12.058;2022-09-01T04:54:50;1.83;;;1.73;;
10041;SDS011;5061;49.068;12.058;2022-09-01T04:58:12;1.87;;;1.77;;
10041;SDS011;5061;49.068;12.058;2022-09-01T05:01:37;2.33;;;2.13;;
10041;SDS011;5061;49.068;12.058;2022-09-01T05:05:04;2.70;;;2.10;;
10041;SDS011;5061;49.068;12.058;2022-09-01T05:08:29;2.27;;;2.07;;
10041;SDS011;5061;49.068;12.058;2022-09-01T05:11:51;1.80;;;1.70;;
10041;SDS011;5061;49.068;12.058;2022-09-01T05:15:12;2.50;;;2.30;;
10041;SDS011;5061;49.068;12.058;2022-09-01T05:18:34;2.97;;;2.67;;
10041;SDS011;5061;49.068;12.058;2022-09-01T05:21:55;2.40;;;2.20;;
10041;SDS011;5061;49.068;12.058;2022-09-01T05:25:17;2.57;;;2.37;;
10041;SDS011;5061;49.068;12.058;2022-09-01T05:28:37;2.70;;;2.50;;
10041;SDS011;5061;49.068;12.058;2022-09-01T05:31:58;2.40;;;2.20;;
10041;SDS011;5061;49.068;12.058;2022-09-01T05:35:27;2.60;;;2.40;;
10041;SDS011;5061;49.068;12.058;2022-09-01T05:38:51;2.30;;;2.10;;
10041;SDS011;5061;49.068;12.058;2022-09-01T05:42:20;3.43;;;3.13;;
10041;SDS011;5061;49.068;12.058;2022-09-01T05:45:48;3.17;;;2.80;;
10041;SDS011;5061;49.068;12.058;2022-09-01T05:49:18;2.60;;;2.40;;
10041;SDS011;5061;49.068;12.058;2022-09-01T05:52:39;2.90;;;2.70;;
10041;SDS011;5061;49.068;12.058;2022-09-01T05:56:00;2.80;;;2.60;;
10041;SDS011;5061;49.068;12.058;2022-09-01T05:59:26;2.40;;;2.20;;
10041;SDS011;5061;49.068;12.058;2022-09-01T06:02:50;2.60;;;2.40;;
10041;SDS011;5061;49.068;12.058;2022-09-01T06:06:12;3.00;;;2.70;;
10041;SDS011;5061;49.068;12.058;2022-09-01T06:09:38;3.03;;;2.83;;
10041;SDS011;5061;49.068;12.058;2022-09-01T06:13:00;3.23;;;3.00;;
10041;SDS011;5061;49.068;12.058;2022-09-01T06:16:22;3.80;;;3.37;;
10041;SDS011;5061;49.068;12.058;2022-09-01T06:19:43;3.57;;;3.27;;
10041;SDS011;5061;49.068;12.058;2022-09-01T06:23:03;3.50;;;3.20;;
10041;SDS011;5061;49.068;12.058;2022-09-01T06:26:29;2.60;;;2.40;;
10041;SDS011;5061;49.068;12.058;2022-09-01T06:29:52;3.63;;;3.23;;
10041;SDS011;5061;49.068;12.058;2022-09-01T06:33:13;2.90;;;2.70;;
10041;SDS011;5061;49.068;12.058;2022-09-01T06:36:35;2.50;;;2.30;;
10041;SDS011;5061;49.068;12.058;2022-09-01T06:39:57;2.80;;;2.60;;
10041;SDS011;5061;49.068;12.058;2022-09-01T06:43:17;2.57;;;2.37;;
10041;SDS011;5061;49.068;12.058;2022-09-01T06:46:38;2.60;;;2.40;;
10041;SDS011;5061;49.068;12.058;2022-09-01T06:49:59;2.83;;;2.63;;
10041;SDS011;5061;49.068;12.058;2022-09-01T06:53:20;2.73;;;2.47;;
10041;SDS011;5061;49.068;12.058;2022-09-01T06:56:41;3.17;;;2.87;;
10041;SDS011;5061;49.068;12.058;2022-09-01T07:00:10;2.50;;;2.30;;
10041;SDS011;5061;49.068;12.058;2022-09-01T07:03:43;2.97;;;2.77;;
10041;SDS011;5061;49.068;12.058;2022-09-01T07:07:06;2.50;;;2.30;;
10041;SDS011;5061;49.068;12.058;2022-09-01T07:10:29;2.37;;;2.17;;
10041;SDS011;5061;49.068;12.058;2022-09-01T07:13:50;2.53;;;2.07;;
10041;SDS011;5061;49.068;12.058;2022-09-01T07:17:13;2.37;;;2.17;;
10041;SDS011;5061;49.068;12.058;2022-09-01T07:20:34;2.30;;;2.10;;
10041;SDS011;5061;49.068;12.058;2022-09-01T07:23:58;1.77;;;1.50;;
10041;SDS011;5061;49.068;12.058;2022-09-01T07:27:23;1.70;;;1.60;;
10041;SDS011;5061;49.068;12.058;2022-09-01T07:30:47;2.40;;;2.00;;
10041;SDS011;5061;49.068;12.058;2022-09-01T07:34:10;1.70;;;1.60;;
10041;SDS011;5061;49.068;12.058;2022-09-01T07:37:32;3.23;;;2.43;;
10041;SDS011;5061;49.068;12.058;2022-09-01T07:40:56;2.17;;;1.97;;
10041;SDS011;5061;49.068;12.058;2022-09-01T07:44:17;2.37;;;2.17;;
10041;SDS011;5061;49.068;12.058;2022-09-01T07:47:37;2.63;;;2.43;;
10041;SDS011;5061;49.068;12.058;2022-09-01T07:50:58;2.50;;;2.30;;
10041;SDS011;5061;49.068;12.058;2022-09-01T07:54:19;2.53;;;2.33;;
10041;SDS011;5061;49.068;12.058;2022-09-01T07:57:43;2.50;;;2.30;;
10041;SDS011;5061;49.068;12.058;2022-09-01T08:01:06;1.60;;;1.50;;
10041;SDS011;5061;49.068;12.058;2022-09-01T08:04:27;2.10;;;1.90;;
10041;SDS011;5061;49.068;12.058;2022-09-01T08:07:48;1.80;;;1.70;;
10041;SDS011;5061;49.068;12.058;2022-09-01T08:11:09;2.10;;;1.90;;
10041;SDS011;5061;49.068;12.058;2022-09-01T08:14:35;1.87;;;1.77;;
10041;SDS011;5061;49.068;12.058;2022-09-01T08:17:56;1.93;;;1.83;;
10041;SDS011;5061;49.068;12.058;2022-09-01T08:21:17;2.07;;;1.97;;
10041;SDS011;5061;49.068;12.058;2022-09-01T08:24:42;1.63;;;1.53;;
10041;SDS011;5061;49.068;12.058;2022-09-01T08:28:03;2.00;;;1.90;;
10041;SDS011;5061;49.068;12.058;2022-09-01T08:31:24;1.53;;;1.43;;
10041;SDS011;5061;49.068;12.058;2022-09-01T08:34:46;2.30;;;2.10;;
10041;SDS011;5061;49.068;12.058;2022-09-01T08:38:07;1.97;;;1.87;;
10041;SDS011;5061;49.068;12.058;2022-09-01T08:41:38;1.93;;;1.83;;
10041;SDS011;5061;49.068;12.058;2022-09-01T08:48:36;2.63;;;2.17;;
10041;SDS011;5061;49.068;12.058;2022-09-01T08:55:56;2.13;;;1.93;;
10041;SDS011;5061;49.068;12.058;2022-09-01T08:59:18;2.20;;;2.00;;
10041;SDS011;5061;49.068;12.058;2022-09-01T09:02:50;1.80;;;1.70;;
10041;SDS011;5061;49.068;12.058;2022-09-01T09:17:32;1.40;;;1.30;;
10041;SDS011;5061;49.068;12.058;2022-09-01T09:28:30;1.50;;;1.40;;
10041;SDS011;5061;49.068;12.058;2022-09-01T09:32:05;2.23;;;2.03;;
10041;SDS011;5061;49.068;12.058;2022-09-01T09:39:02;1.50;;;1.40;;
10041;SDS011;5061;49.068;12.058;2022-09-01T09:42:36;1.50;;;1.40;;
10041;SDS011;5061;49.068;12.058;2022-09-01T09:49:44;2.03;;;1.87;;
10041;SDS011;5061;49.068;12.058;2022-09-01T09:56:45;1.47;;;1.37;;
10041;SDS011;5061;49.068;12.058;2022-09-01T10:00:41;1.67;;;1.57;;
10041;SDS011;5061;49.068;12.058;2022-09-01T10:03:55;1.93;;;1.73;;
10041;SDS011;5061;49.068;12.058;2022-09-01T10:07:25;1.87;;;1.77;;
10041;SDS011;5061;49.068;12.058;2022-09-01T10:10:48;3.33;;;2.30;;
10041;SDS011;5061;49.068;12.058;2022-09-01T10:14:14;2.20;;;2.00;;
10041;SDS011;5061;49.068;12.058;2022-09-01T10:17:39;1.70;;;1.50;;
10041;SDS011;5061;49.068;12.058;2022-09-01T10:21:14;1.33;;;1.23;;
10041;SDS011;5061;49.068;12.058;2022-09-01T10:24:41;1.33;;;1.23;;
10041;SDS011;5061;49.068;12.058;2022-09-01T10:28:21;1.43;;;1.33;;
10041;SDS011;5061;49.068;12.058;2022-09-01T10:31:43;1.10;;;1.00;;
10041;SDS011;5061;49.068;12.058;2022-09-01T10:35:04;1.17;;;1.07;;
10041;SDS011;5061;49.068;12.058;2022-09-01T10:38:27;1.20;;;1.10;;
10041;SDS011;5061;49.068;12.058;2022-09-01T10:45:18;1.10;;;1.00;;
10041;SDS011;5061;49.068;12.058;2022-09-01T10:49:02;1.80;;;1.70;;
10041;SDS011;5061;49.068;12.058;2022-09-01T10:59:27;1.70;;;1.60;;
10041;SDS011;5061;49.068;12.058;2022-09-01T11:06:32;1.60;;;1.50;;
10041;SDS011;5061;49.068;12.058;2022-09-01T11:10:23;1.33;;;1.23;;
10041;SDS011;5061;49.068;12.058;2022-09-01T11:14:03;1.27;;;1.17;;
10041;SDS011;5061;49.068;12.058;2022-09-01T11:21:29;1.20;;;1.10;;
10041;SDS011;5061;49.068;12.058;2022-09-01T11:28:54;3.07;;;1.80;;
10041;SDS011;5061;49.068;12.058;2022-09-01T11:32:15;2.00;;;1.90;;
10041;SDS011;5061;49.068;12.058;2022-09-01T11:35:36;1.40;;;1.30;;
10041;SDS011;5061;49.068;12.058;2022-09-01T11:42:39;2.40;;;1.43;;
10041;SDS011;5061;49.068;12.058;2022-09-01T11:46:14;1.20;;;1.10;;
10041;SDS011;5061;49.068;12.058;2022-09-01T11:49:56;1.33;;;1.23;;
10041;SDS011;5061;49.068;12.058;2022-09-01T11:53:20;1.37;;;1.27;;
10041;SDS011;5061;49.068;12.058;2022-09-01T11:56:43;1.67;;;1.57;;
10041;SDS011;5061;49.068;12.058;2022-09-01T12:00:05;1.60;;;1.50;;
10041;SDS011;5061;49.068;12.058;2022-09-01T12:03:29;1.10;;;1.00;;
10041;SDS011;5061;49.068;12.058;2022-09-01T12:06:50;1.37;;;1.27;;
10041;SDS011;5061;49.068;12.058;2022-09-01T12:10:16;1.40;;;1.30;;
10041;SDS011;5061;49.068;12.058;2022-09-01T12:13:54;1.17;;;1.07;;
10041;SDS011;5061;49.068;12.058;2022-09-01T12:17:18;1.57;;;1.47;;
10041;SDS011;5061;49.068;12.058;2022-09-01T12:20:40;1.30;;;1.20;;
10041;SDS011;5061;49.068;12.058;2022-09-01T12:27:38;1.87;;;1.30;;
10041;SDS011;5061;49.068;12.058;2022-09-01T12:30:59;1.20;;;1.10;;
10041;SDS011;5061;49.068;12.058;2022-09-01T12:38:14;1.23;;;1.13;;
10041;SDS011;5061;49.068;12.058;2022-09-01T12:41:39;1.10;;;1.00;;
10041;SDS011;5061;49.068;12.058;2022-09-01T12:45:00;1.70;;;1.60;;
10041;SDS011;5061;49.068;12.058;2022-09-01T12:48:24;1.40;;;1.30;;
10041;SDS011;5061;49.068;12.058;2022-09-01T12:51:49;1.20;;;1.10;;
10041;SDS011;5061;49.068;12.058;2022-09-01T12:55:25;1.93;;;1.40;;
10041;SDS011;5061;49.068;12.058;2022-09-01T12:58:49;1.33;;;1.23;;
10041;SDS011;5061;49.068;12.058;2022-09-01T13:03:23;1.43;;;1.33;;
10041;SDS011;5061;49.068;12.058;2022-09-01T13:06:15;1.30;;;1.20;;
10041;SDS011;5061;49.068;12.058;2022-09-01T13:09:35;2.83;;;1.30;;
10041;SDS011;5061;49.068;12.058;2022-09-01T13:12:57;1.40;;;1.30;;
10041;SDS011;5061;49.068;12.058;2022-09-01T13:16:17;1.70;;;1.40;;
10041;SDS011;5061;49.068;12.058;2022-09-01T13:19:38;1.20;;;1.10;;
10041;SDS011;5061;49.068;12.058;2022-09-01T13:22:59;1.20;;;1.10;;
10041;SDS011;5061;49.068;12.058;2022-09-01T13:26:19;1.30;;;1.20;;
10041;SDS011;5061;49.068;12.058;2022-09-01T13:29:40;1.20;;;1.10;;
10041;SDS011;5061;49.068;12.058;2022-09-01T13:33:00;1.07;;;0.97;;
10041;SDS011;5061;49.068;12.058;2022-09-01T13:36:21;1.30;;;1.20;;
10041;SDS011;5061;49.068;12.058;2022-09-01T13:39:42;1.43;;;1.33;;
10041;SDS011;5061;49.068;12.058;2022-09-01T13:43:02;1.23;;;1.13;;
10041;SDS011;5061;49.068;12.058;2022-09-01T13:46:24;1.20;;;1.03;;
10041;SDS011;5061;49.068;12.058;2022-09-01T13:49:44;1.10;;;1.00;;
10041;SDS011;5061;49.068;12.058;2022-09-01T13:53:05;1.17;;;1.07;;
10041;SDS011;5061;49.068;12.058;2022-09-01T13:56:26;1.20;;;1.10;;
10041;SDS011;5061;49.068;12.058;2022-09-01T13:59:46;1.33;;;1.17;;
10041;SDS011;5061;49.068;12.058;2022-09-01T14:03:08;1.57;;;1.43;;
10041;SDS011;5061;49.068;12.058;2022-09-01T14:06:31;1.33;;;1.23;;
10041;SDS011;5061;49.068;12.058;2022-09-01T14:09:52;1.10;;;1.00;;
10041;SDS011;5061;49.068;12.058;2022-09-01T14:13:14;1.20;;;1.10;;
10041;SDS011;5061;49.068;12.058;2022-09-01T14:16:34;1.33;;;1.23;;
10041;SDS011;5061;49.068;12.058;2022-09-01T14:19:55;1.20;;;1.10;;
10041;SDS011;5061;49.068;12.058;2022-09-01T14:23:16;1.43;;;1.33;;
10041;SDS011;5061;49.068;12.058;2022-09-01T14:26:39;1.40;;;1.30;;
10041;SDS011;5061;49.068;12.058;2022-09-01T14:30:00;2.20;;;1.37;;
10041;SDS011;5061;49.068;12.058;2022-09-01T14:33:21;1.40;;;1.30;;
10041;SDS011;5061;49.068;12.058;2022-09-01T14:36:43;1.30;;;1.20;;
10041;SDS011;5061;49.068;12.058;2022-09-01T14:40:05;1.20;;;1.10;;
10041;SDS011;5061;49.068;12.058;2022-09-01T14:43:27;1.20;;;1.00;;
10041;SDS011;5061;49.068;12.058;2022-09-01T14:46:48;2.07;;;1.23;;
10041;SDS011;5061;49.068;12.058;2022-09-01T14:50:09;1.30;;;1.20;;
10041;SDS011;5061;49.068;12.058;2022-09-01T14:53:31;1.20;;;1.10;;
10041;SDS011;5061;49.068;12.058;2022-09-01T14:56:51;1.10;;;1.00;;
10041;SDS011;5061;49.068;12.058;2022-09-01T15:00:12;0.90;;;0.80;;
10041;SDS011;5061;49.068;12.058;2022-09-01T15:03:33;1.00;;;0.90;;
10041;SDS011;5061;49.068;12.058;2022-09-01T15:06:54;1.30;;;1.20;;
10041;SDS011;5061;49.068;12.058;2022-09-01T15:10:15;0.80;;;0.80;;
10041;SDS011;5061;49.068;12.058;2022-09-01T15:13:38;1.00;;;0.90;;
10041;SDS011;5061;49.068;12.058;2022-09-01T15:17:00;1.10;;;1.00;;
10041;SDS011;5061;49.068;12.058;2022-09-01T15:20:24;1.10;;;1.00;;
10041;SDS011;5061;49.068;12.058;2022-09-01T15:24:04;1.10;;;1.00;;
10041;SDS011;5061;49.068;12.058;2022-09-01T15:27:26;1.00;;;0.80;;
10041;SDS011;5061;49.068;12.058;2022-09-01T15:30:47;0.80;;;0.70;;
10041;SDS011;5061;49.068;12.058;2022-09-01T15:34:08;0.80;;;0.73;;
10041;SDS011;5061;49.068;12.058;2022-09-01T15:37:29;0.90;;;0.80;;
10041;SDS011;5061;49.068;12.058;2022-09-01T15:40:50;0.80;;;0.80;;
10041;SDS011;5061;49.068;12.058;2022-09-01T15:44:11;0.80;;;0.80;;
10041;SDS011;5061;49.068;12.058;2022-09-01T15:47:31;0.80;;;0.80;;
10041;SDS011;5061;49.068;12.058;2022-09-01T15:50:52;1.10;;;1.00;;
10041;SDS011;5061;49.068;12.058;2022-09-01T15:54:18;0.80;;;0.80;;
10041;SDS011;5061;49.068;12.058;2022-09-01T15:57:39;1.00;;;0.90;;
10041;SDS011;5061;49.068;12.058;2022-09-01T16:01:00;1.10;;;1.00;;
10041;SDS011;5061;49.068;12.058;2022-09-01T16:04:20;0.90;;;0.80;;
10041;SDS011;5061;49.068;12.058;2022-09-01T16:07:43;0.90;;;0.90;;
10041;SDS011;5061;49.068;12.058;2022-09-01T16:11:07;1.10;;;0.80;;
10041;SDS011;5061;49.068;12.058;2022-09-01T16:14:30;0.80;;;0.80;;
10041;SDS011;5061;49.068;12.058;2022-09-01T16:21:48;1.00;;;0.90;;
10041;SDS011;5061;49.068;12.058;2022-09-01T16:25:29;0.80;;;0.80;;
10041;SDS011;5061;49.068;12.058;2022-09-01T16:28:52;0.80;;;0.80;;
10041;SDS011;5061;49.068;12.058;2022-09-01T16:32:16;1.00;;;0.90;;
10041;SDS011;5061;49.068;12.058;2022-09-01T16:35:43;1.00;;;0.90;;
10041;SDS011;5061;49.068;12.058;2022-09-01T16:43:08;1.03;;;0.83;;
10041;SDS011;5061;49.068;12.058;2022-09-01T16:46:44;0.90;;;0.80;;
10041;SDS011;5061;49.068;12.058;2022-09-01T17:05:19;1.10;;;1.00;;
10041;SDS011;5061;49.068;12.058;2022-09-01T17:08:54;1.00;;;0.90;;
10041;SDS011;5061;49.068;12.058;2022-09-01T17:16:07;0.97;;;0.87;;
10041;SDS011;5061;49.068;12.058;2022-09-01T17:19:41;1.00;;;0.90;;
10041;SDS011;5061;49.068;12.058;2022-09-01T17:23:01;0.90;;;0.73;;
10041;SDS011;5061;49.068;12.058;2022-09-01T17:26:28;2.03;;;1.00;;
10041;SDS011;5061;49.068;12.058;2022-09-01T17:29:53;1.00;;;0.80;;
10041;SDS011;5061;49.068;12.058;2022-09-01T17:33:24;1.10;;;0.80;;
10041;SDS011;5061;49.068;12.058;2022-09-01T17:44:35;0.90;;;0.77;;
10041;SDS011;5061;49.068;12.058;2022-09-01T17:48:14;0.87;;;0.80;;
10041;SDS011;5061;49.068;12.058;2022-09-01T17:51:43;1.27;;;1.07;;
10041;SDS011;5061;49.068;12.058;2022-09-01T17:55:59;0.80;;;0.80;;
10041;SDS011;5061;49.068;12.058;2022-09-01T18:06:08;0.80;;;0.70;;
10041;SDS011;5061;49.068;12.058;2022-09-01T18:09:39;1.63;;;0.90;;
10041;SDS011;5061;49.068;12.058;2022-09-01T18:13:05;1.10;;;0.80;;
10041;SDS011;5061;49.068;12.058;2022-09-01T18:16:35;0.80;;;0.70;;
10041;SDS011;5061;49.068;12.058;2022-09-01T18:20:25;0.90;;;0.80;;
10041;SDS011;5061;49.068;12.058;2022-09-01T18:23:51;0.80;;;0.70;;
10041;SDS011;5061;49.068;12.058;2022-09-01T18:27:33;0.83;;;0.77;;
10041;SDS011;5061;49.068;12.058;2022-09-01T19:00:00;0.80;;;0.70;;
10041;SDS011;5061;49.068;12.058;2022-09-01T19:03:30;1.10;;;1.00;;
10041;SDS011;5061;49.068;12.058;2022-09-01T19:07:02;1.07;;;0.97;;
10041;SDS011;5061;49.068;12.058;2022-09-01T19:14:18;1.00;;;0.80;;
10041;SDS011;5061;49.068;12.058;2022-09-01T19:24:32;1.00;;;0.90;;
10041;SDS011;5061;49.068;12.058;2022-09-01T19:31:35;0.80;;;0.80;;
10041;SDS011;5061;49.068;12.058;2022-09-01T19:35:05;0.80;;;0.80;;
10041;SDS011;5061;49.068;12.058;2022-09-01T19:38:32;1.00;;;0.90;;
10041;SDS011;5061;49.068;12.058;2022-09-01T19:41:56;0.80;;;0.70;;
10041;SDS011;5061;49.068;12.058;2022-09-01T19:49:06;0.80;;;0.80;;
10041;SDS011;5061;49.068;12.058;2022-09-01T19:56:42;1.10;;;0.90;;
10041;SDS011;5061;49.068;12.058;2022-09-01T20:03:49;1.33;;;1.00;;
10041;SDS011;5061;49.068;12.058;2022-09-01T20:07:24;0.80;;;0.70;;
10041;SDS011;5061;49.068;12.058;2022-09-01T20:14:45;1.07;;;0.87;;
10041;SDS011;5061;49.068;12.058;2022-09-01T20:18:33;1.10;;;1.00;;
10041;SDS011;5061;49.068;12.058;2022-09-01T20:22:21;0.80;;;0.70;;
10041;SDS011;5061;49.068;12.058;2022-09-01T20:33:19;1.23;;;0.70;;
10041;SDS011;5061;49.068;12.058;2022-09-01T20:37:32;0.80;;;0.70;;
10041;SDS011;5061;49.068;12.058;2022-09-01T20:40:45;0.80;;;0.70;;
10041;SDS011;5061;49.068;12.058;2022-09-01T20:44:11;0.80;;;0.70;;
10041;SDS011;5061;49.068;12.058;2022-09-01T20:47:39;0.80;;;0.80;;
10041;SDS011;5061;49.068;12.058;2022-09-01T20:54:52;0.80;;;0.80;;
10041;SDS011;5061;49.068;12.058;2022-09-01T20:58:43;0.80;;;0.80;;
10041;SDS011;5061;49.068;12.058;2022-09-01T21:02:20;0.80;;;0.77;;
10041;SDS011;5061;49.068;12.058;2022-09-01T21:12:52;1.10;;;0.80;;
10041;SDS011;5061;49.068;12.058;2022-09-01T21:16:22;0.90;;;0.80;;
10041;SDS011;5061;49.068;12.058;2022-09-01T21:23:45;1.37;;;0.83;;
10041;SDS011;5061;49.068;12.058;2022-09-01T21:27:07;1.10;;;1.00;;
10041;SDS011;5061;49.068;12.058;2022-09-01T21:30:37;0.90;;;0.80;;
10041;SDS011;5061;49.068;12.058;2022-09-01T21:33:58;1.07;;;0.80;;
10041;SDS011;5061;49.068;12.058;2022-09-01T21:37:19;1.00;;;0.90;;
10041;SDS011;5061;49.068;12.058;2022-09-01T21:40:41;0.77;;;0.73;;
10041;SDS011;5061;49.068;12.058;2022-09-01T21:44:02;0.80;;;0.73;;
10041;SDS011;5061;49.068;12.058;2022-09-01T21:47:23;1.83;;;0.80;;
10041;SDS011;5061;49.068;12.058;2022-09-01T21:50:45;0.80;;;0.77;;
10041;SDS011;5061;49.068;12.058;2022-09-01T21:54:07;1.10;;;0.90;;
10041;SDS011;5061;49.068;12.058;2022-09-01T21:57:28;1.33;;;0.97;;
10041;SDS011;5061;49.068;12.058;2022-09-01T22:00:49;0.80;;;0.70;;
10041;SDS011;5061;49.068;12.058;2022-09-01T22:04:10;0.93;;;0.83;;
10041;SDS011;5061;49.068;12.058;2022-09-01T22:07:35;1.10;;;1.00;;
10041;SDS011;5061;49.068;12.058;2022-09-01T22:10:59;1.00;;;0.80;;
10041;SDS011;5061;49.068;12.058;2022-09-01T22:14:20;1.27;;;1.00;;
10041;SDS011;5061;49.068;12.058;2022-09-01T22:17:41;1.27;;;0.90;;
10041;SDS011;5061;49.068;12.058;2022-09-01T22:21:03;1.20;;;1.00;;
10041;SDS011;5061;49.068;12.058;2022-09-01T22:24:25;1.00;;;0.90;;
10041;SDS011;5061;49.068;12.058;2022-09-01T22:27:46;1.00;;;0.90;;
10041;SDS011;5061;49.068;12.058;2022-09-01T22:31:11;1.10;;;1.00;;
10041;SDS011;5061;49.068;12.058;2022-09-01T22:34:33;1.37;;;1.17;;
10041;SDS011;5061;49.068;12.058;2022-09-01T22:37:54;1.00;;;0.90;;
10041;SDS011;5061;49.068;12.058;2022-09-01T22:41:18;1.50;;;1.40;;
10041;SDS011;5061;49.068;12.058;2022-09-01T22:44:40;1.70;;;1.10;;
10041;SDS011;5061;49.068;12.058;2022-09-01T22:48:01;0.80;;;0.80;;
10041;SDS011;5061;49.068;12.058;2022-09-01T22:51:22;1.30;;;1.20;;
10041;SDS011;5061;49.068;12.058;2022-09-01T22:54:43;0.80;;;0.80;;
10041;SDS011;5061;49.068;12.058;2022-09-01T22:58:04;1.30;;;1.00;;
10041;SDS011;5061;49.068;12.058;2022-09-01T23:01:26;1.40;;;1.00;;
10041;SDS011;5061;49.068;12.058;2022-09-01T23:04:50;1.20;;;1.10;;
10041;SDS011;5061;49.068;12.058;2022-09-01T23:08:12;1.17;;;1.07;;
10041;SDS011;5061;49.068;12.058;2022-09-01T23:11:33;1.43;;;1.20;;
10041;SDS011;5061;49.068;12.058;2022-09-01T23:14:54;1.40;;;1.10;;
10041;SDS011;5061;49.068;12.058;2022-09-01T23:18:15;1.50;;;1.00;;
10041;SDS011;5061;49.068;12.058;2022-09-01T23:21:36;1.23;;;1.13;;
10041;SDS011;5061;49.068;12.058;2022-09-01T23:24:57;1.27;;;1.17;;
10041;SDS011;5061;49.068;12.058;2022-09-01T23:28:18;1.10;;;1.00;;
10041;SDS011;5061;49.068;12.058;2022-09-01T23:31:39;1.00;;;0.83;;
10041;SDS011;5061;49.068;12.058;2022-09-01T23:35:00;1.00;;;0.90;;
10041;SDS011;5061;49.068;12.058;2022-09-01T23:38:22;1.20;;;1.10;;
10041;SDS011;5061;49.068;12.058;2022-09-01T23:41:44;1.10;;;1.00;;
10041;SDS011;5061;49.068;12.058;2022-09-01T23:45:04;1.07;;;0.90;;